Latest Weather Observations for Mackay Airport

IDQ60801

Issued at 4:32 am EST Friday 20 May 2022 (issued every 10 minutes, with the page automatically refreshed every 10 minutes)

About weather observations | Map of weather stations | Latest weather observations for QLD | Other Formats
Station Details ID: 033045 Name: MACKAY AERO Lat: -21.17 Lon: 149.18 Height: 5.3 m
Data from the previous 72 hours. | See also: Recent months at Mackay Airport
Date/Time
EST
Temp
°C
App
Temp
°C
Dew
Point
°C
Rel
Hum
%
Delta-T
°C
Wind Press
QNH
hPa
Press
MSL
hPa
Rain since
9am
mm
Dir  Spd
km/h
Gust
km/h
Spd
kts
Gust
kts
20/04:30am 21.2 21.4 20.2 94 0.6 SSE 19 24 10 13 1016.4 1016.4 1.6
20/04:00am 21.3 21.4 20.3 94 0.6 SSE 20 28 11 15 1016.4 1016.4 1.2
20/03:58am 21.4 21.5 20.4 94 0.6 SSE 20 28 11 15 1016.4 1016.4 1.2
20/03:57am 21.3 21.4 20.3 94 0.6 SSE 20 28 11 15 1016.4 1016.4 1.2
20/03:36am 21.4 21.4 20.2 93 0.8 SSE 20 30 11 16 1016.3 1016.3 1.0
20/03:30am 21.6 21.2 20.2 92 0.9 SSE 22 30 12 16 1016.4 1016.4 1.0
20/03:00am 22.5 21.2 20.6 89 1.2 SSE 28 43 15 23 1016.5 1016.5 1.0
20/02:50am 22.4 20.3 20.5 89 1.2 SSE 32 43 17 23 1016.5 1016.5 1.0
20/02:35am 22.0 19.7 20.6 92 0.9 SSE 33 44 18 24 1016.6 1016.6 0.8
20/02:30am 22.2 19.9 20.5 90 1.1 SSE 33 44 18 24 1016.6 1016.6 0.8
20/02:00am 22.6 20.9 20.5 88 1.4 SSE 30 44 16 24 1016.8 1016.8 0.6
20/01:30am 22.5 21.9 20.6 89 1.2 SSE 24 35 13 19 1016.9 1016.9 0.4
20/01:20am 22.3 22.2 20.8 91 1.0 SSE 22 28 12 15 1017.0 1017.0 0.4
20/01:16am 22.2 22.1 20.8 92 0.9 SSE 22 32 12 17 1017.0 1017.0 0.4
20/01:00am 22.1 21.3 20.9 93 0.8 SE 26 37 14 20 1017.3 1017.3 0.4
20/12:53am 22.3 21.6 21.1 93 0.8 SE 26 39 14 21 1017.3 1017.3 0.2
20/12:51am 22.3 21.5 20.9 92 0.9 SE 26 39 14 21 1017.3 1017.3 0.2
20/12:46am 22.9 23.0 20.4 86 1.6 SSE 20 32 11 17 1017.3 1017.3 0.2
20/12:30am 23.3 21.5 20.4 84 1.9 SSE 30 41 16 22 1017.3 1017.3 0.2
20/12:00am 23.2 23.6 20.9 87 1.5 SE 20 28 11 15 1017.6 1017.6 0.2
 
Date/Time
EST
Temp
°C
App
Temp
°C
Dew
Point
°C
Rel
Hum
%
Delta-T
°C
Wind Press
QNH
hPa
Press
MSL
hPa
Rain since
9am
mm
Dir  Spd
km/h
Gust
km/h
Spd
kts
Gust
kts
19/11:30pm 23.1 23.7 21.4 90 1.1 SE 20 30 11 16 1017.7 1017.7 0.2
19/11:15pm 23.1 23.9 21.4 90 1.1 SSE 19 24 10 13 1017.8 1017.8 0.2
19/11:00pm 23.6 23.8 21.3 87 1.5 SE 22 32 12 17 1017.8 1017.8 0.0
19/10:30pm 23.4 23.1 21.1 87 1.5 SE 24 30 13 16 1018.0 1018.0 0.0
19/10:00pm 23.6 23.3 21.1 86 1.6 SE 24 32 13 17 1018.1 1018.1 0.0
19/09:30pm 23.5 23.4 20.8 85 1.8 SE 22 32 12 17 1018.2 1018.2 0.0
19/09:00pm 23.7 23.0 21.0 85 1.8 SE 26 35 14 19 1018.3 1018.3 0.0
19/08:30pm 23.7 24.3 21.0 85 1.8 SE 19 28 10 15 1018.3 1018.3 0.0
19/08:00pm 23.5 24.6 21.2 87 1.5 SE 17 22 9 12 1017.9 1017.9 0.0
19/07:30pm 23.6 24.2 21.1 86 1.6 SE 19 24 10 13 1017.5 1017.5 0.0
19/07:00pm 23.5 25.1 20.8 85 1.8 SE 13 20 7 11 1017.1 1017.1 0.0
19/06:30pm 23.0 23.3 20.3 85 1.7 SE 19 24 10 13 1016.9 1016.9 0.0
19/06:00pm 24.2 25.1 20.1 78 2.7 SSE 15 19 8 10 1016.6 1016.6 0.0
19/05:30pm 24.3 25.6 20.2 78 2.7 SSE 13 20 7 11 1016.4 1016.4 0.0
19/05:00pm 24.6 24.8 20.1 76 2.9 SSE 19 26 10 14 1016.1 1016.1 0.0
19/04:30pm 24.7 24.7 20.2 76 2.9 SE 20 28 11 15 1015.9 1015.9 0.0
19/04:00pm 24.9 24.6 20.4 76 2.9 SE 22 28 12 15 1015.8 1015.8 0.0
19/03:30pm 25.1 24.5 20.4 75 3.1 SE 24 33 13 18 1015.7 1015.7 0.0
19/03:00pm 25.2 25.0 20.5 75 3.1 SE 22 30 12 16 1015.4 1015.4 0.0
19/02:30pm 25.8 26.2 21.0 75 3.2 SE 20 28 11 15 1015.4 1015.4 0.0
19/02:00pm 25.8 25.3 20.8 74 3.3 SE 24 33 13 18 1015.6 1015.6 0.0
19/01:30pm 26.0 26.4 21.7 77 2.9 SE 22 30 12 16 1015.9 1015.9 0.0
19/01:00pm 25.7 25.3 20.9 75 3.2 SE 24 33 13 18 1016.3 1016.3 0.0
19/12:30pm 25.3 24.7 20.5 75 3.1 SE 24 30 13 16 1016.7 1016.7 0.0
19/12:00pm 25.0 23.9 20.3 75 3.1 SE 26 35 14 19 1017.0 1017.0 0.0
19/11:30am 25.5 25.3 21.2 77 2.8 SE 24 33 13 18 1017.3 1017.3 0.0
19/11:00am 25.0 24.9 20.7 77 2.8 SSE 22 32 12 17 1017.7 1017.7 0.0
19/10:30am 24.7 24.2 20.8 79 2.6 SSE 24 30 13 16 1018.0 1018.0 0.0
19/10:00am 24.6 25.1 21.1 81 2.3 SSE 20 26 11 14 1018.2 1018.2 0.0
19/09:30am 23.8 24.0 20.5 82 2.1 SSE 20 28 11 15 1018.2 1018.2 0.0
19/09:00am 23.4 23.2 20.5 84 1.9 SSE 22 32 12 17 1018.0 1018.0 7.4
19/08:30am 23.0 23.4 20.7 87 1.5 SSE 19 24 10 13 1017.9 1017.9 7.4
19/08:00am 22.5 23.2 20.4 88 1.4 SSE 17 24 9 13 1017.7 1017.7 7.4
19/07:30am 22.2 22.9 20.5 90 1.1 S 17 20 9 11 1017.4 1017.4 7.4
19/07:00am 21.8 23.2 20.4 92 0.9 S 13 19 7 10 1017.2 1017.2 7.4
19/06:30am 21.8 23.2 20.4 92 0.9 S 13 19 7 10 1017.0 1017.0 7.4
19/06:00am 21.8 23.3 20.6 93 0.8 S 13 19 7 10 1016.5 1016.5 7.4
19/05:30am 21.9 23.6 20.9 94 0.7 S 13 19 7 10 1016.3 1016.3 7.4
19/05:00am 21.8 22.8 21.0 95 0.5 S 17 26 9 14 1015.9 1015.9 7.4
19/04:30am 22.1 22.9 21.3 95 0.5 S 19 24 10 13 1015.8 1015.8 7.0
19/04:00am 21.8 23.5 21.0 95 0.5 SSW 13 17 7 9 1015.7 1015.7 7.0
19/03:30am 21.6 23.6 20.8 95 0.5 SSW 11 13 6 7 1015.8 1015.8 7.0
19/03:00am 21.6 23.2 20.8 95 0.5 SSW 13 15 7 8 1015.8 1015.8 7.0
19/02:30am 21.6 23.2 20.8 95 0.5 SSW 13 17 7 9 1015.8 1015.8 7.0
19/02:00am 21.6 23.2 20.8 95 0.5 SSW 13 17 7 9 1016.1 1016.1 7.0
19/01:30am 21.5 23.1 20.8 96 0.5 SSW 13 15 7 8 1016.2 1016.2 7.0
19/01:00am 21.3 22.5 20.6 96 0.5 SSW 15 17 8 9 1016.4 1016.4 7.0
19/12:35am 21.2 22.3 20.5 96 0.5 SSW 15 19 8 10 1016.6 1016.6 7.0
19/12:30am 21.3 22.5 20.6 96 0.5 SSW 15 20 8 11 1016.7 1016.7 7.0
19/12:22am 21.3 22.1 20.6 96 0.5 SSW 17 22 9 12 1016.8 1016.8 6.8
19/12:08am 21.4 21.8 20.7 96 0.5 SSW 19 24 10 13 1016.9 1016.9 6.6
19/12:00am 21.4 22.2 20.7 96 0.5 SSW 17 22 9 12 1016.9 1016.9 5.8
 
Date/Time
EST
Temp
°C
App
Temp
°C
Dew
Point
°C
Rel
Hum
%
Delta-T
°C
Wind Press
QNH
hPa
Press
MSL
hPa
Rain since
9am
mm
Dir  Spd
km/h
Gust
km/h
Spd
kts
Gust
kts
18/11:52pm 21.5 22.0 20.8 96 0.5 SSW 19 24 10 13 1016.9 1016.9 5.8
18/11:30pm 21.6 23.3 20.9 96 0.5 SSW 13 19 7 10 1017.0 1017.0 5.8
18/11:21pm 21.5 22.4 20.8 96 0.5 SSW 17 22 9 12 1017.1 1017.1 5.6
18/11:00pm 21.3 22.1 20.6 96 0.5 S 17 20 9 11 1017.4 1017.4 4.8
18/10:36pm 21.4 21.8 20.6 95 0.5 S 19 28 10 15 1017.5 1017.5 2.4
18/10:30pm 21.5 21.8 20.7 95 0.5 S 20 28 11 15 1017.5 1017.5 2.0
18/10:25pm 21.5 21.7 20.5 94 0.6 S 20 28 11 15 1017.5 1017.5 1.8
18/10:18pm 22.0 23.0 21.0 94 0.7 SSW 17 28 9 15 1017.5 1017.5 0.8
18/10:00pm 22.3 25.3 21.3 94 0.7 WSW 7 11 4 6 1017.3 1017.3 0.6
18/09:30pm 22.6 27.1 21.6 94 0.7 CALM 0 0 0 0 1017.2 1017.2 0.6
18/09:09pm 22.6 26.4 21.6 94 0.7 SE 4 9 2 5 1017.4 1017.4 0.6
18/09:00pm 22.6 26.0 21.6 94 0.7 ESE 6 9 3 5 1017.4 1017.4 0.6
18/08:58pm 22.5 25.8 21.5 94 0.7 ESE 6 9 3 5 1017.4 1017.4 0.6
18/08:31pm 22.5 25.0 21.1 92 0.9 WSW 9 11 5 6 1017.1 1017.1 0.0
18/08:30pm 22.5 25.0 21.1 92 0.9 WSW 9 11 5 6 1017.1 1017.1 0.0
18/08:00pm 23.0 25.8 21.5 91 1.0 WSW 9 11 5 6 1016.7 1016.7 0.0
18/07:56pm 23.1 25.9 21.5 91 1.1 WSW 9 11 5 6 1016.7 1016.7 0.0
18/07:30pm 23.2 26.0 21.6 91 1.1 SSW 9 11 5 6 1016.6 1016.6 0.0
18/07:00pm 23.4 26.5 21.5 89 1.3 S 7 9 4 5 1016.2 1016.2 0.0
18/06:30pm 23.9 26.7 21.6 87 1.5 SSE 9 11 5 6 1015.9 1015.9 0.0
18/06:00pm 24.1 26.4 21.4 85 1.8 SSE 11 15 6 8 1015.5 1015.5 0.0
18/05:30pm 24.2 26.2 21.5 85 1.8 SE 13 17 7 9 1015.2 1015.2 0.0
18/05:00pm 24.5 25.7 21.4 83 2.0 SE 17 20 9 11 1015.0 1015.0 0.0
18/04:30pm 24.7 25.9 21.4 82 2.2 ESE 17 20 9 11 1014.7 1014.7 0.0
18/04:00pm 25.2 26.9 21.7 81 2.3 ESE 15 19 8 10 1014.5 1014.5 0.0
18/03:30pm 25.1 28.1 22.0 83 2.1 SE 9 13 5 7 1014.3 1014.3 0.0
18/03:00pm 24.7 26.5 21.2 81 2.3 SE 13 17 7 9 1014.2 1014.2 0.0
18/02:30pm 24.4 26.1 20.9 81 2.3 SE 13 15 7 8 1014.4 1014.4 0.0
18/02:00pm 23.5 25.6 22.5 94 0.7 ESE 15 19 8 10 1014.7 1014.7 0.0
18/01:30pm 22.4 21.9 20.7 90 1.1 ESE 24 33 13 18 1015.2 1015.2 0.0
18/01:26pm 22.5 22.1 21.0 91 1.0 ESE 24 33 13 18 1015.3 1015.3 0.0
18/01:12pm 23.2 23.2 21.6 91 1.1 SE 24 33 13 18 1015.4 1015.4 0.0
18/01:00pm 24.1 24.8 21.6 86 1.7 SE 20 28 11 15 1015.5 1015.5 0.0
18/12:30pm 24.9 25.7 21.4 81 2.3 ESE 19 24 10 13 1015.7 1015.7 0.0
18/12:00pm 25.4 25.8 20.9 76 3.0 SE 20 26 11 14 1016.0 1016.0 0.0
18/11:30am 25.1 25.5 20.6 76 2.9 SSE 19 28 10 15 1016.4 1016.4 0.0
18/11:00am 25.5 26.0 21.2 77 2.8 SE 20 30 11 16 1016.8 1016.8 0.0
18/10:30am 24.8 25.3 20.9 79 2.6 SSE 19 24 10 13 1017.1 1017.1 0.0
18/10:00am 24.8 25.3 21.1 80 2.4 SSE 20 26 11 14 1017.2 1017.2 0.0
18/09:30am 24.0 25.5 20.5 81 2.3 SSE 13 19 7 10 1017.2 1017.2 0.0
18/09:00am 22.8 25.1 20.7 88 1.4 S 9 13 5 7 1017.0 1017.0 0.2
18/08:30am 21.9 23.9 20.0 89 1.2 S 9 13 5 7 1016.8 1016.8 0.2
18/08:00am 21.4 22.6 19.9 91 1.0 SSW 13 17 7 9 1016.4 1016.4 0.2
18/07:30am 20.6 21.7 19.6 94 0.6 SSW 13 17 7 9 1016.2 1016.2 0.2
18/07:00am 20.1 21.8 19.4 96 0.4 SW 9 11 5 6 1015.9 1015.9 0.2
18/06:30am 19.3 20.7 18.6 96 0.4 SW 9 9 5 5 1015.6 1015.6 0.2
18/06:00am 18.8 19.9 18.1 96 0.4 WSW 9 9 5 5 1015.2 1015.2 0.2
18/05:30am 19.0 20.6 18.3 96 0.4 W 7 11 4 6 1014.8 1014.8 0.2
18/05:00am 19.2 20.5 18.4 95 0.5 W 9 11 5 6 1014.4 1014.4 0.2
18/04:30am 19.2 20.5 18.4 95 0.5 WSW 9 13 5 7 1014.4 1014.4 0.2
18/04:00am 19.4 21.1 18.6 95 0.5 W 7 11 4 6 1014.5 1014.5 0.2
18/03:34am 19.5 21.5 18.7 95 0.5 SW 6 7 3 4 1014.5 1014.5 0.2
18/03:30am 19.5 21.5 18.7 95 0.5 SW 6 7 3 4 1014.5 1014.5 0.2
18/03:09am 19.5 21.3 18.7 95 0.5 WSW 7 7 4 4 1014.5 1014.5 0.2
18/03:05am 19.5 21.2 18.5 94 0.6 WSW 7 7 4 4 1014.5 1014.5 0.2
18/03:00am 19.6 21.5 18.6 94 0.6 WSW 6 7 3 4 1014.5 1014.5 0.2
18/02:49am 19.7 21.8 18.9 95 0.5 WSW 6 9 3 5 1014.7 1014.7 0.2
18/02:30am 19.5 21.5 18.7 95 0.5 W 6 7 3 4 1014.6 1014.6 0.2
18/02:00am 19.4 21.1 18.6 95 0.5 WSW 7 11 4 6 1014.9 1014.9 0.2
18/01:30am 19.5 21.4 18.5 94 0.6 WSW 6 9 3 5 1015.0 1015.0 0.2
18/01:00am 19.5 21.1 18.3 93 0.7 WSW 7 9 4 5 1015.3 1015.3 0.2
18/12:30am 19.6 21.3 18.4 93 0.7 SW 7 9 4 5 1015.4 1015.4 0.2
18/12:00am 19.6 20.9 18.4 93 0.7 SW 9 11 5 6 1015.5 1015.5 0.2
 
Date/Time
EST
Temp
°C
App
Temp
°C
Dew
Point
°C
Rel
Hum
%
Delta-T
°C
Wind Press
QNH
hPa
Press
MSL
hPa
Rain since
9am
mm
Dir  Spd
km/h
Gust
km/h
Spd
kts
Gust
kts
17/11:30pm 19.9 21.3 18.6 92 0.8 SW 9 11 5 6 1015.6 1015.6 0.2
17/11:00pm 20.3 22.2 19.0 92 0.8 SW 7 9 4 5 1015.9 1015.9 0.2
17/10:30pm 20.9 22.3 19.6 92 0.8 SW 11 13 6 7 1015.8 1015.8 0.2
17/10:00pm 20.8 22.1 19.3 91 0.9 SW 11 13 6 7 1015.7 1015.7 0.2
17/09:30pm 21.1 22.6 19.7 92 0.9 SW 11 13 6 7 1015.9 1015.9 0.2
17/09:21pm 21.5 23.9 20.0 91 1.0 SSW 7 11 4 6 1015.9 1015.9 0.2
17/09:00pm 21.9 24.5 20.5 92 0.9 SSE 7 11 4 6 1015.8 1015.8 0.2
17/08:32pm 21.5 23.4 19.8 90 1.1 SSW 9 11 5 6 1015.5 1015.5 0.2
17/08:30pm 21.5 23.4 19.8 90 1.1 SSW 9 11 5 6 1015.4 1015.4 0.2
17/08:00pm 23.6 24.7 20.5 83 2.0 ESE 15 20 8 11 1015.2 1015.2 0.2
17/07:30pm 22.9 24.3 20.4 86 1.6 SE 13 15 7 8 1014.9 1014.9 0.2
17/07:00pm 23.5 24.4 20.0 81 2.3 ESE 15 19 8 10 1014.6 1014.6 0.2
17/06:30pm 23.5 24.5 20.2 82 2.1 ESE 15 17 8 9 1014.5 1014.5 0.2
17/06:00pm 23.7 24.5 19.8 79 2.5 ESE 15 20 8 11 1014.2 1014.2 0.2
17/05:57pm 23.9 24.4 20.0 79 2.5 ESE 17 20 9 11 1014.2 1014.2 0.2
17/05:42pm 23.8 25.1 20.1 80 2.4 ESE 13 19 7 10 1013.9 1013.9 0.2
17/05:30pm 24.0 24.8 19.9 78 2.6 ESE 15 19 8 10 1013.7 1013.7 0.2
17/05:00pm 24.9 24.8 19.5 72 3.5 ESE 19 24 10 13 1013.4 1013.4 0.2
17/04:30pm 25.4 25.3 20.0 72 3.5 ESE 20 26 11 14 1013.1 1013.1 0.2
17/04:00pm 25.9 25.6 21.1 75 3.2 ESE 24 32 13 17 1012.9 1012.9 0.2
17/03:30pm 26.2 25.4 20.1 69 4.0 ESE 24 30 13 16 1012.8 1012.8 0.2
17/03:00pm 26.7 26.3 20.1 67 4.3 ESE 22 28 12 15 1012.9 1012.9 0.2
17/02:30pm 26.8 26.2 20.6 69 4.1 ESE 24 33 13 18 1013.0 1013.0 0.2
17/02:00pm 26.7 27.2 21.9 75 3.2 ESE 22 28 12 15 1013.1 1013.1 0.2
17/01:30pm 26.8 26.9 21.8 74 3.3 ESE 24 32 13 17 1013.3 1013.3 0.2
17/01:00pm 26.8 27.1 21.6 73 3.5 ESE 22 30 12 16 1013.7 1013.7 0.2
17/12:30pm 26.8 27.7 22.6 78 2.8 ESE 22 30 12 16 1014.2 1014.2 0.2
17/12:00pm 26.3 27.0 22.2 78 2.8 ESE 22 28 12 15 1014.4 1014.4 0.2
17/11:30am 26.6 27.5 22.0 76 3.1 ESE 20 26 11 14 1014.9 1014.9 0.2
17/11:00am 26.8 27.8 21.8 74 3.3 ESE 19 24 10 13 1015.3 1015.3 0.2
17/10:30am 27.0 28.6 22.2 75 3.2 SE 17 24 9 13 1015.6 1015.6 0.0
17/10:00am 25.9 27.4 22.0 79 2.6 SE 17 20 9 11 1015.7 1015.7 0.0
17/09:30am 25.2 26.5 21.7 81 2.3 SSE 17 20 9 11 1015.6 1015.6 0.0
17/09:00am 24.3 26.5 21.8 86 1.7 S 13 19 7 10 1015.5 1015.5 0.0
17/08:30am 22.9 25.1 21.2 90 1.1 SSW 11 13 6 7 1015.3 1015.3 0.0
17/08:00am 21.4 23.7 20.7 96 0.5 SW 9 11 5 6 1015.0 1015.0 0.0
17/07:30am 20.4 22.7 19.9 97 0.3 WSW 7 9 4 5 1014.7 1014.7 0.0
17/07:00am 19.4 21.5 18.9 97 0.3 W 6 9 3 5 1014.4 1014.4 0.0
17/06:30am 18.9 20.6 18.4 97 0.3 WSW 7 9 4 5 1013.9 1013.9 0.0
17/06:00am 19.1 20.5 18.6 97 0.3 WSW 9 11 5 6 1013.5 1013.5 0.0
17/05:30am 18.9 20.2 18.4 97 0.3 WSW 9 11 5 6 1013.2 1013.2 0.0
17/05:00am 19.0 20.7 18.5 97 0.3 WSW 7 7 4 4 1013.1 1013.1 0.0

Other formats

Comma delimited format used in spreadsheet applications
http://www.bom.gov.au/fwo/IDQ60801/IDQ60801.95367.axf

JavaScript Object Notation format (JSON) in row-major order
http://www.bom.gov.au/fwo/IDQ60801/IDQ60801.95367.json

Data quality

Most of these data are generated automatically and are frequently updated. Quality checks on data are not normally performed. It is possible for incorrect values to appear. Refer to information at About Latest Weather Observations and please check the disclaimer before using these data.